Race Schedule

  • 10:15 Race Line-up

  • 10:30 Race Begins

  • 1:30 Award Ceremony

  • Above the Napa Valley - Elevation 1667'
  • Race Director: Michael Hellie 707-965-6346
  • 10-mile multi-loop course:  see entry form for number of laps for your category
HOME NFOIRMATION START TIMES MAIL IN ENTRY FORM PHOTOS

 2013 Race Results     Result  Previous Years Results: 201220112010, 2009, 2008, 2007, 2006, 2005, 2004, 2003, 2002, 2001, 2000

Race Class Name Place Name Result Race #
HMC 13 Open Pro Male 1 Ryan  Chandler 02:10:08 557
HMC 13 18 & Under Cat 1 Male 1 Seth Francis 02:32:05 550
HMC 13 19-34 Cat 1 Male 1 Andrew Taylor 02:19:12 549
HMC 13 19-34 Cat 1 Male 2 Antonio Miranda 02:27:00 520
HMC 13 19-34 Cat 1 Male 3 Eric Colton 02:27:33 536
HMC 13 19-34 Cat 1 Male 4 Marshall Eames 02:31:30 597
HMC 13 19-34 Cat 1 Male 5 Robert Butner 02:43:28 552
HMC 13 19-34 Cat 1 Male 6 Brett Butler 02:56:59 591
HMC 13 35-44 Cat 1 Male 1 Alex Kramer 02:19:45 654
HMC 13 35-44 Cat 1 Male 2 Brian Butler 02:22:20 590
HMC 13 35-44 Cat 1 Male 3 Carlos Perez 02:30:55 607
HMC 13 35-44 Cat 1 Male 4 Marco Boldt 02:38:02 608
HMC 13 35-44 Cat 1 Male 5 Cisco Moran  02:48:34 566
HMC 13 35-44 Cat 1 Male 6 Tyson Godfrey 03:01:10 546
HMC 13 45-54 Cat 1 Male 1 Marc Kirberg 02:27:02 613
HMC 13 45-54 Cat 1 Male 2 Brent Graves 02:30:34 589
HMC 13 45-54 Cat 1 Male 3 Chris Urban 02:30:41 580
HMC 13 45-54 Cat 1 Male 4 Javier Sanchez 02:35:09 588
HMC 13 45-54 Cat 1 Male 5 Cliff Millemann 02:39:02 603
HMC 13 45-54 Cat 1 Male 6 Scott Zavack 02:40:04 594
HMC 13 45-54 Cat 1 Male 7 Rich Gelsi-Medeot 02:45:25 568
HMC 13 45-54 Cat 1 Male 8 Daniele Farnedi 02:46:15 534
HMC 13 45-54 Cat 1 Male 9 Curtis Kimble 02:52:31 556
HMC 13 55+ Cat 1 Male 1 Jamie Willin 01:48:38 530
HMC 13 55+ Cat 1 Male 2 Scott Calley 01:50:59 563
HMC 13 55+ Cat 1 Male 3 Richard Latorraca 01:54:53 581
HMC 13 55+ Cat 1 Male 4 Scott Martin 02:00:48 537
HMC 13 55+ Cat 1 Male 5 Dane Grant 02:06:37 535
HMC 13 18 & under Cat 1 Female 1 Kelsey Urban 02:10:03 527
HMC 13 35-44 Cat 1 Female 1 Jamie Whitmore 02:10:04 561
HMC 13 35-44 Cat 1 Female 2 Debra Zupancic 02:23:39 513
HMC 13 45-54 Cat 1 Female 1 Cammie Urban 02:01:15 528
HMC 13 Open Sport Single Speed Male 1 Brandon Senn 02:21:37 578
HMC 13 18 & under Cat 2 Male 1 Ezra Acker 01:48:23 596
HMC 13 18 & under Cat 2 Male 2 Cassidy Mountjoy 01:58:56 598
HMC 13 19-34 Cat 2 Male 1 Erik Siebelist 01:45:11 532
HMC 13 19-34 Cat 2 Male 2 Chad Arkoff 01:50:02 622
HMC 13 19-34 Cat 2 Male 3 Joe Pridmore 01:51:53 572
HMC 13 19-34 Cat 2 Male 4 Sean Henderson 01:52:45 510
HMC 13 19-34 Cat 2 Male 5 Christopher Rhodes 02:00:12 592
HMC 13 19-34 Cat 2 Male 6 Chris Borjian 02:01:32 545
HMC 13 19-34 Cat 2 Male 7 Reid Williamson 02:01:48 507
HMC 13 19-34 Cat 2 Male 8 Alex Remy 02:05:04 612
HMC 13 19-34 Cat 2 Male 9 Nate Kapinos 02:11:05 619
HMC 13 19-34 Cat 2 Male 10 Sergio Fuentes 02:11:21 565
HMC 13 19-34 Cat 2 Male 11 Adam Shuey 02:17:52 644
HMC 13 35-44 Cat 2 Male 1 Isaac Levine 01:48:14 519
HMC 13 35-44 Cat 2 Male 2 Chappy Wood 01:48:14 617
HMC 13 35-44 Cat 2 Male 3 Adrian Hinman 01:49:20 509
HMC 13 35-44 Cat 2 Male 4 Greg Fitzgerald 01:51:54 508
HMC 13 35-44 Cat 2 Male 5 Peter Brown 01:52:53 541
HMC 13 35-44 Cat 2 Male 6 Brett Kelley 01:54:18 502
HMC 13 35-44 Cat 2 Male 7 Jeremy Page 01:57:39 582
HMC 13 35-44 Cat 2 Male 8 Orion Corcillus 01:58:40 609
HMC 13 35-44 Cat 2 Male 9 Chris Kohlhardt 02:00:24 584
HMC 13 35-44 Cat 2 Male 10 Christopher Cooney 02:01:48 506
HMC 13 35-44 Cat 2 Male 11 Adrian Tamblin 02:03:09 593
HMC 13 35-44 Cat 2 Male 12 Jeff Bilodean 02:05:05 604
HMC 13 35-44 Cat 2 Male 13 Mauricio Sanchez 02:38:20 547
HMC 13 45-54 Cat 2 Male 1 Mike Warren 01:48:59 575
HMC 13 45-54 Cat 2 Male 2 Al Dietz 01:49:45 522
HMC 13 45-54 Cat 2 Male 3 Tom Diller 01:49:56 569
HMC 13 45-54 Cat 2 Male 4 Todd Roach 01:56:55 605
HMC 13 45-54 Cat 2 Male 5 Bruce Armstrong 01:56:58 517
HMC 13 45-54 Cat 2 Male 6 Steve Reddie 01:57:14 587
HMC 13 45-54 Cat 2 Male 7 Roger Simmons 02:01:22 623
HMC 13 45-54 Cat 2 Male 8 Tom Campeau 02:02:47 606
HMC 13 45-54 Cat 2 Male 9 Robert Richard 02:02:48 601
HMC 13 45-54 Cat 2 Male 10 Dino Basaldella 02:04:52 559
HMC 13 45-54 Cat 2 Male 11 David Wolbeck 02:12:10 586
HMC 13 45-54 Cat 2 Male 12 Tim Brown 02:13:08 560
HMC 13 45-54 Cat 2 Male 13 Chris Land 02:14:25 574
HMC 13 45-54 Cat 2 Male 14 Richard Jacinto 02:14:43 621
HMC 13 45-54 Cat 2 Male 15 Jeremy Brown 02:15:40 531
HMC 13 45-54 Cat 2 Male 16 Joe Fritz 02:20:11 585
HMC 13 45-54 Cat 2 Male 17 Paciano Lara 02:26:40 620
HMC 13 55+ Cat 2 Male 1 Jeff McCulloch 01:54:47 611
HMC 13 55+ Cat 2 Male 2 Tim Hoffman 02:08:17 539
HMC 13 55+ Cat 2 Male 3 Thomas Wood 02:09:07 610
HMC 13 55+ Cat 2 Male 4 George Cruz 02:09:37 602
HMC 13 55+ Cat 2 Male 5 Doug Ward 02:14:56 529
HMC 13 55+ Cat 2 Male 6 Keith Silverman 02:35:10 579
HMC 13 55+ Cat 2 Male 7 Brian Acker 02:36:19 595
HMC 13 Open Clydesdale Male 1 Mike Wilson 02:01:45 542
HMC 13 Open Clydesdale Male 2 David Broome 02:06:38 648
HMC 13 Open Clydesdale Male 3 Chris Baker 02:11:52 573
HMC 13 18 & under Cat 2 Female 1 Alicia Leggett 02:21:31 551
HMC 13 19-34 Cat 2 Female 1 Pam Hwang 01:58:06 540
HMC 13 19-34 Cat 2 Female 2 Cari Levine 02:06:19 548
HMC 13 35-44 Cat 2 Female 1 Petra Kirberg 02:03:27 616
HMC 13 35-44 Cat 2 Female 2 Rebeca Tschider 02:17:34 599
HMC 13 45-54 Cat 2 Female 1 Irene Ota 02:43:32 583
HMC 13 13 & under Cat 3 Male 1 Ethan Broome 01:30:51 647
HMC 13 13 & under Cat 3 Male 2 Stefan Beckman 01:32:58 571
HMC 13 13 & under Cat 3 Male 3 Caleb Jeske 02:28:14 655
HMC 13 14-18 Cat 3 Male 1 Spencer Fields 01:02:23 614
HMC 13 19-34 Cat 3 Male

1

Alex Klimaj 01:08:20 553
HMC 13 19-34 Cat 3 Male 2 Daniel Cross 01:09:34 544
HMC 13 19-34 Cat 3 Male 3 Chip Dillon 01:19:24 618
HMC 13 35-44 Cat 3 Male 1 Stephen Langone 01:02:53 516
HMC 13 35-44 Cat 3 Male 2 Ming Tan 01:02:56 514
HMC 13 35-44 Cat 3 Male 3 Brad Clark 01:10:52 649
HMC 13 35-44 Cat 3 Male 4 Kevin Gnusti 01:11:26 521
HMC 13 35-44 Cat 3 Male 5 James Beam 01:17:36 646
HMC 13 35-44 Cat 3 Male 6 Heath Hardcastle 01:19:24 564
HMC 13 35-44 Cat 3 Male 7 Damon Ropoulos 01:22:27 524
HMC 13 35-44 Cat 3 Male 8 Brian Monahan 01:33:17 650
HMC 13 45-54 Cat 3 Male 1 Mike Warr 01:04:50 555
HMC 13 45-54 Cat 3 Male 2 Mark Giblin 01:05:30 533
HMC 13 45-54 Cat 3 Male 3 Mike Ulyatt 01:10:50 562
HMC 13 45-54 Cat 3 Male 4 Chris Fry 01:11:38 600
HMC 13 45-54 Cat 3 Male 5 Nick Ampon 01:27:46 653
HMC 13 55+ Cat 3 Male 1 Robert Mayer 01:18:48 504
HMC 13 55+ Cat 3 Male 2 Domonic Stansberry 01:34:17 615
HMC 13 35-44 Cat 3 Female 1 Kim Galord 01:13:02 576
HMC 13 35-44 Cat 3 Female 2 Sara Desmond 01:45:28 651
HMC 13 45-54 Cat 3 Female 1 Juliana Gosling 01:19:00 570
HMC 13 45-54 Cat 3 Female 2 Ellen Wilson 01:41:52 543
HMC 13 55+ Cat 3 Female 1 Cyndi Morin 02:02:11 558